sensor_id;sensor_type;location;lat;lon;timestamp;temperature;humidity
39067;DHT22;24821;51.988;6.020;2022-07-01T00:00:28;16.70;99.90
39067;DHT22;24821;51.988;6.020;2022-07-01T00:02:53;16.70;99.90
39067;DHT22;24821;51.988;6.020;2022-07-01T00:05:19;16.70;99.90
39067;DHT22;24821;51.988;6.020;2022-07-01T00:07:46;16.70;99.90
39067;DHT22;24821;51.988;6.020;2022-07-01T00:10:12;16.70;99.90
39067;DHT22;24821;51.988;6.020;2022-07-01T00:12:38;16.70;99.90
39067;DHT22;24821;51.988;6.020;2022-07-01T00:15:04;16.70;99.90
39067;DHT22;24821;51.988;6.020;2022-07-01T00:17:30;16.60;99.90
39067;DHT22;24821;51.988;6.020;2022-07-01T00:19:55;16.60;99.90
39067;DHT22;24821;51.988;6.020;2022-07-01T00:22:21;16.60;99.90
39067;DHT22;24821;51.988;6.020;2022-07-01T00:24:47;16.60;99.90
39067;DHT22;24821;51.988;6.020;2022-07-01T00:27:14;16.60;99.90
39067;DHT22;24821;51.988;6.020;2022-07-01T00:29:40;16.60;99.90
39067;DHT22;24821;51.988;6.020;2022-07-01T00:32:06;16.50;99.90
39067;DHT22;24821;51.988;6.020;2022-07-01T00:34:32;16.50;99.90
39067;DHT22;24821;51.988;6.020;2022-07-01T00:36:57;16.50;99.90
39067;DHT22;24821;51.988;6.020;2022-07-01T00:39:23;16.50;99.90
39067;DHT22;24821;51.988;6.020;2022-07-01T00:41:48;16.60;99.90
39067;DHT22;24821;51.988;6.020;2022-07-01T00:44:18;16.60;99.90
39067;DHT22;24821;51.988;6.020;2022-07-01T00:46:45;16.70;99.90
39067;DHT22;24821;51.988;6.020;2022-07-01T00:49:11;16.60;99.90
39067;DHT22;24821;51.988;6.020;2022-07-01T00:51:37;16.60;99.90
39067;DHT22;24821;51.988;6.020;2022-07-01T00:54:02;16.60;99.90
39067;DHT22;24821;51.988;6.020;2022-07-01T00:56:28;16.60;99.90
39067;DHT22;24821;51.988;6.020;2022-07-01T00:58:55;16.50;99.90
39067;DHT22;24821;51.988;6.020;2022-07-01T01:01:21;16.50;99.90
39067;DHT22;24821;51.988;6.020;2022-07-01T01:03:48;16.40;99.90
39067;DHT22;24821;51.988;6.020;2022-07-01T01:06:15;16.40;99.90
39067;DHT22;24821;51.988;6.020;2022-07-01T01:08:42;16.40;99.90
39067;DHT22;24821;51.988;6.020;2022-07-01T01:11:07;16.40;99.90
39067;DHT22;24821;51.988;6.020;2022-07-01T01:13:33;16.40;99.90
39067;DHT22;24821;51.988;6.020;2022-07-01T01:15:59;16.40;99.90
39067;DHT22;24821;51.988;6.020;2022-07-01T01:18:25;16.50;99.90
39067;DHT22;24821;51.988;6.020;2022-07-01T01:20:52;16.50;99.90
39067;DHT22;24821;51.988;6.020;2022-07-01T01:23:18;16.50;99.90
39067;DHT22;24821;51.988;6.020;2022-07-01T01:25:44;16.50;99.90
39067;DHT22;24821;51.988;6.020;2022-07-01T01:28:11;16.40;99.90
39067;DHT22;24821;51.988;6.020;2022-07-01T01:30:37;16.40;99.90
39067;DHT22;24821;51.988;6.020;2022-07-01T01:33:03;16.30;99.90
39067;DHT22;24821;51.988;6.020;2022-07-01T01:35:28;16.30;99.90
39067;DHT22;24821;51.988;6.020;2022-07-01T01:37:54;16.30;99.90
39067;DHT22;24821;51.988;6.020;2022-07-01T01:40:20;16.30;99.90
39067;DHT22;24821;51.988;6.020;2022-07-01T01:42:45;16.20;99.90
39067;DHT22;24821;51.988;6.020;2022-07-01T01:45:12;16.20;99.90
39067;DHT22;24821;51.988;6.020;2022-07-01T01:47:38;16.20;99.90
39067;DHT22;24821;51.988;6.020;2022-07-01T01:50:05;16.10;99.90
39067;DHT22;24821;51.988;6.020;2022-07-01T01:52:31;16.10;99.90
39067;DHT22;24821;51.988;6.020;2022-07-01T01:54:57;16.10;99.90
39067;DHT22;24821;51.988;6.020;2022-07-01T01:57:22;16.20;99.90
39067;DHT22;24821;51.988;6.020;2022-07-01T01:59:48;16.20;99.90
39067;DHT22;24821;51.988;6.020;2022-07-01T02:02:13;16.10;99.90
39067;DHT22;24821;51.988;6.020;2022-07-01T02:04:39;16.10;99.90
39067;DHT22;24821;51.988;6.020;2022-07-01T02:07:04;16.10;99.90
39067;DHT22;24821;51.988;6.020;2022-07-01T02:09:30;16.10;99.90
39067;DHT22;24821;51.988;6.020;2022-07-01T02:11:56;16.10;99.90
39067;DHT22;24821;51.988;6.020;2022-07-01T02:14:22;16.00;99.90
39067;DHT22;24821;51.988;6.020;2022-07-01T02:16:47;16.10;99.90
39067;DHT22;24821;51.988;6.020;2022-07-01T02:19:13;16.10;99.90
39067;DHT22;24821;51.988;6.020;2022-07-01T02:21:38;16.10;99.90
39067;DHT22;24821;51.988;6.020;2022-07-01T02:24:04;16.10;99.90
39067;DHT22;24821;51.988;6.020;2022-07-01T02:26:30;16.10;99.90
39067;DHT22;24821;51.988;6.020;2022-07-01T02:28:56;16.10;99.90
39067;DHT22;24821;51.988;6.020;2022-07-01T02:31:21;16.10;99.90
39067;DHT22;24821;51.988;6.020;2022-07-01T02:33:47;16.00;99.90
39067;DHT22;24821;51.988;6.020;2022-07-01T02:36:13;16.00;99.90
39067;DHT22;24821;51.988;6.020;2022-07-01T02:38:38;16.00;99.90
39067;DHT22;24821;51.988;6.020;2022-07-01T02:41:04;16.00;99.90
39067;DHT22;24821;51.988;6.020;2022-07-01T02:43:29;16.00;99.90
39067;DHT22;24821;51.988;6.020;2022-07-01T02:45:57;16.00;99.90
39067;DHT22;24821;51.988;6.020;2022-07-01T02:48:23;15.90;99.90
39067;DHT22;24821;51.988;6.020;2022-07-01T02:50:48;15.90;99.90
39067;DHT22;24821;51.988;6.020;2022-07-01T02:53:14;15.90;99.90
39067;DHT22;24821;51.988;6.020;2022-07-01T02:55:39;15.90;99.90
39067;DHT22;24821;51.988;6.020;2022-07-01T02:58:05;16.00;99.90
39067;DHT22;24821;51.988;6.020;2022-07-01T03:00:30;16.00;99.90
39067;DHT22;24821;51.988;6.020;2022-07-01T03:02:56;16.00;99.90
39067;DHT22;24821;51.988;6.020;2022-07-01T03:05:22;16.00;99.90
39067;DHT22;24821;51.988;6.020;2022-07-01T03:07:47;16.00;99.90
39067;DHT22;24821;51.988;6.020;2022-07-01T03:10:13;16.00;99.90
39067;DHT22;24821;51.988;6.020;2022-07-01T03:12:39;16.00;99.90
39067;DHT22;24821;51.988;6.020;2022-07-01T03:15:07;16.00;99.90
39067;DHT22;24821;51.988;6.020;2022-07-01T03:17:34;16.00;99.90
39067;DHT22;24821;51.988;6.020;2022-07-01T03:20:01;15.90;99.90
39067;DHT22;24821;51.988;6.020;2022-07-01T03:22:28;15.80;99.90
39067;DHT22;24821;51.988;6.020;2022-07-01T03:24:55;15.80;99.90
39067;DHT22;24821;51.988;6.020;2022-07-01T03:27:21;15.70;99.90
39067;DHT22;24821;51.988;6.020;2022-07-01T03:29:47;15.70;99.90
39067;DHT22;24821;51.988;6.020;2022-07-01T03:32:13;15.70;99.90
39067;DHT22;24821;51.988;6.020;2022-07-01T03:34:39;15.60;99.90
39067;DHT22;24821;51.988;6.020;2022-07-01T03:37:06;15.60;99.90
39067;DHT22;24821;51.988;6.020;2022-07-01T03:39:32;15.60;99.90
39067;DHT22;24821;51.988;6.020;2022-07-01T03:41:58;15.50;99.90
39067;DHT22;24821;51.988;6.020;2022-07-01T03:44:23;15.50;99.90
39067;DHT22;24821;51.988;6.020;2022-07-01T03:46:49;15.40;99.90
39067;DHT22;24821;51.988;6.020;2022-07-01T03:49:15;15.40;99.90
39067;DHT22;24821;51.988;6.020;2022-07-01T03:51:40;15.40;99.90
39067;DHT22;24821;51.988;6.020;2022-07-01T03:54:06;15.40;99.90
39067;DHT22;24821;51.988;6.020;2022-07-01T03:56:50;15.40;99.90
39067;DHT22;24821;51.988;6.020;2022-07-01T03:59:16;15.30;99.90
39067;DHT22;24821;51.988;6.020;2022-07-01T04:01:41;15.30;99.90
39067;DHT22;24821;51.988;6.020;2022-07-01T04:04:07;15.30;99.90
39067;DHT22;24821;51.988;6.020;2022-07-01T04:06:32;15.30;99.90
39067;DHT22;24821;51.988;6.020;2022-07-01T04:08:58;15.30;99.90
39067;DHT22;24821;51.988;6.020;2022-07-01T04:11:24;15.30;99.90
39067;DHT22;24821;51.988;6.020;2022-07-01T04:13:49;15.30;99.90
39067;DHT22;24821;51.988;6.020;2022-07-01T04:16:19;15.40;99.90
39067;DHT22;24821;51.988;6.020;2022-07-01T04:18:46;15.40;99.90
39067;DHT22;24821;51.988;6.020;2022-07-01T04:21:11;15.40;99.90
39067;DHT22;24821;51.988;6.020;2022-07-01T04:23:56;15.40;99.90
39067;DHT22;24821;51.988;6.020;2022-07-01T04:26:23;15.30;99.90
39067;DHT22;24821;51.988;6.020;2022-07-01T04:28:52;15.30;99.90
39067;DHT22;24821;51.988;6.020;2022-07-01T04:31:18;15.30;99.90
39067;DHT22;24821;51.988;6.020;2022-07-01T04:33:45;15.40;99.90
39067;DHT22;24821;51.988;6.020;2022-07-01T04:36:10;15.50;99.90
39067;DHT22;24821;51.988;6.020;2022-07-01T04:38:36;15.50;99.90
39067;DHT22;24821;51.988;6.020;2022-07-01T04:41:01;15.50;99.90
39067;DHT22;24821;51.988;6.020;2022-07-01T04:43:46;15.50;99.90
39067;DHT22;24821;51.988;6.020;2022-07-01T04:46:11;15.60;99.90
39067;DHT22;24821;51.988;6.020;2022-07-01T04:48:37;15.50;99.90
39067;DHT22;24821;51.988;6.020;2022-07-01T04:51:02;15.60;99.90
39067;DHT22;24821;51.988;6.020;2022-07-01T04:53:28;15.60;99.90
39067;DHT22;24821;51.988;6.020;2022-07-01T04:55:53;15.60;99.90
39067;DHT22;24821;51.988;6.020;2022-07-01T04:58:19;15.60;99.90
39067;DHT22;24821;51.988;6.020;2022-07-01T05:00:44;15.50;99.90
39067;DHT22;24821;51.988;6.020;2022-07-01T05:03:10;15.60;99.90
39067;DHT22;24821;51.988;6.020;2022-07-01T05:05:35;15.60;99.90
39067;DHT22;24821;51.988;6.020;2022-07-01T05:08:01;15.70;99.90
39067;DHT22;24821;51.988;6.020;2022-07-01T05:10:27;15.70;99.90
39067;DHT22;24821;51.988;6.020;2022-07-01T05:12:54;15.70;99.90
39067;DHT22;24821;51.988;6.020;2022-07-01T05:15:19;15.70;99.90
39067;DHT22;24821;51.988;6.020;2022-07-01T05:17:45;15.80;99.90
39067;DHT22;24821;51.988;6.020;2022-07-01T05:20:29;15.80;99.90
39067;DHT22;24821;51.988;6.020;2022-07-01T05:23:13;15.80;99.90
39067;DHT22;24821;51.988;6.020;2022-07-01T05:25:39;15.90;99.90
39067;DHT22;24821;51.988;6.020;2022-07-01T05:28:04;15.90;99.90
39067;DHT22;24821;51.988;6.020;2022-07-01T05:30:30;15.90;99.90
39067;DHT22;24821;51.988;6.020;2022-07-01T05:32:55;15.90;99.90
39067;DHT22;24821;51.988;6.020;2022-07-01T05:35:21;15.90;99.90
39067;DHT22;24821;51.988;6.020;2022-07-01T05:37:46;16.00;99.90
39067;DHT22;24821;51.988;6.020;2022-07-01T05:40:12;16.00;99.90
39067;DHT22;24821;51.988;6.020;2022-07-01T05:42:38;16.00;99.90
39067;DHT22;24821;51.988;6.020;2022-07-01T05:45:04;16.00;99.90
39067;DHT22;24821;51.988;6.020;2022-07-01T05:47:29;16.00;99.90
39067;DHT22;24821;51.988;6.020;2022-07-01T05:49:55;16.10;99.90
39067;DHT22;24821;51.988;6.020;2022-07-01T05:52:20;16.10;99.90
39067;DHT22;24821;51.988;6.020;2022-07-01T05:54:46;16.20;99.90
39067;DHT22;24821;51.988;6.020;2022-07-01T05:57:11;16.20;99.90
39067;DHT22;24821;51.988;6.020;2022-07-01T05:59:37;16.20;99.90
39067;DHT22;24821;51.988;6.020;2022-07-01T06:02:03;16.30;99.90
39067;DHT22;24821;51.988;6.020;2022-07-01T06:04:29;16.30;99.90
39067;DHT22;24821;51.988;6.020;2022-07-01T06:06:54;16.40;99.90
39067;DHT22;24821;51.988;6.020;2022-07-01T06:09:20;16.30;99.90
39067;DHT22;24821;51.988;6.020;2022-07-01T06:11:45;16.30;99.90
39067;DHT22;24821;51.988;6.020;2022-07-01T06:14:11;16.30;99.90
39067;DHT22;24821;51.988;6.020;2022-07-01T06:16:37;16.40;99.90
39067;DHT22;24821;51.988;6.020;2022-07-01T06:19:04;16.40;99.90
39067;DHT22;24821;51.988;6.020;2022-07-01T06:21:30;16.40;99.90
39067;DHT22;24821;51.988;6.020;2022-07-01T06:23:56;16.40;99.90
39067;DHT22;24821;51.988;6.020;2022-07-01T06:26:21;16.50;99.90
39067;DHT22;24821;51.988;6.020;2022-07-01T06:28:47;16.50;99.90
39067;DHT22;24821;51.988;6.020;2022-07-01T06:31:12;16.40;99.90
39067;DHT22;24821;51.988;6.020;2022-07-01T06:33:38;16.50;99.90
39067;DHT22;24821;51.988;6.020;2022-07-01T06:36:03;16.50;99.90
39067;DHT22;24821;51.988;6.020;2022-07-01T06:38:29;16.60;99.90
39067;DHT22;24821;51.988;6.020;2022-07-01T06:40:55;16.60;99.90
39067;DHT22;24821;51.988;6.020;2022-07-01T06:43:39;16.70;99.90
39067;DHT22;24821;51.988;6.020;2022-07-01T06:46:05;16.70;99.90
39067;DHT22;24821;51.988;6.020;2022-07-01T06:48:31;16.80;99.90
39067;DHT22;24821;51.988;6.020;2022-07-01T06:50:56;16.80;99.90
39067;DHT22;24821;51.988;6.020;2022-07-01T06:53:22;16.80;99.90
39067;DHT22;24821;51.988;6.020;2022-07-01T06:55:47;16.80;99.90
39067;DHT22;24821;51.988;6.020;2022-07-01T06:58:13;16.80;99.90
39067;DHT22;24821;51.988;6.020;2022-07-01T07:00:39;16.80;99.90
39067;DHT22;24821;51.988;6.020;2022-07-01T07:03:04;16.90;99.80
39067;DHT22;24821;51.988;6.020;2022-07-01T07:05:30;16.80;99.50
39067;DHT22;24821;51.988;6.020;2022-07-01T07:07:56;16.80;99.80
39067;DHT22;24821;51.988;6.020;2022-07-01T07:10:22;16.80;99.40
39067;DHT22;24821;51.988;6.020;2022-07-01T07:12:48;16.80;99.70
39067;DHT22;24821;51.988;6.020;2022-07-01T07:15:13;16.80;99.70
39067;DHT22;24821;51.988;6.020;2022-07-01T07:17:39;16.80;99.50
39067;DHT22;24821;51.988;6.020;2022-07-01T07:20:05;16.90;99.70
39067;DHT22;24821;51.988;6.020;2022-07-01T07:22:31;17.20;99.60
39067;DHT22;24821;51.988;6.020;2022-07-01T07:24:56;17.50;98.80
39067;DHT22;24821;51.988;6.020;2022-07-01T07:27:22;17.80;98.00
39067;DHT22;24821;51.988;6.020;2022-07-01T07:29:47;18.00;97.50
39067;DHT22;24821;51.988;6.020;2022-07-01T07:32:13;18.30;97.40
39067;DHT22;24821;51.988;6.020;2022-07-01T07:34:39;18.60;96.80
39067;DHT22;24821;51.988;6.020;2022-07-01T07:37:04;18.90;96.20
39067;DHT22;24821;51.988;6.020;2022-07-01T07:39:30;19.30;95.40
39067;DHT22;24821;51.988;6.020;2022-07-01T07:41:55;19.50;95.10
39067;DHT22;24821;51.988;6.020;2022-07-01T07:44:21;19.80;95.10
39067;DHT22;24821;51.988;6.020;2022-07-01T07:46:47;20.20;94.30
39067;DHT22;24821;51.988;6.020;2022-07-01T07:49:12;20.40;94.10
39067;DHT22;24821;51.988;6.020;2022-07-01T07:51:38;20.70;93.70
39067;DHT22;24821;51.988;6.020;2022-07-01T07:54:03;20.90;93.30
39067;DHT22;24821;51.988;6.020;2022-07-01T07:56:30;21.20;92.60
39067;DHT22;24821;51.988;6.020;2022-07-01T07:58:56;21.30;92.20
39067;DHT22;24821;51.988;6.020;2022-07-01T08:01:22;21.30;91.90
39067;DHT22;24821;51.988;6.020;2022-07-01T08:03:48;21.30;91.80
39067;DHT22;24821;51.988;6.020;2022-07-01T08:06:13;21.20;91.50
39067;DHT22;24821;51.988;6.020;2022-07-01T08:08:39;20.90;91.80
39067;DHT22;24821;51.988;6.020;2022-07-01T08:11:04;20.70;92.60
39067;DHT22;24821;51.988;6.020;2022-07-01T08:13:31;20.50;93.00
39067;DHT22;24821;51.988;6.020;2022-07-01T08:15:57;20.80;93.30
39067;DHT22;24821;51.988;6.020;2022-07-01T08:18:22;21.10;92.70
39067;DHT22;24821;51.988;6.020;2022-07-01T08:20:48;21.50;92.00
39067;DHT22;24821;51.988;6.020;2022-07-01T08:23:20;21.70;91.60
39067;DHT22;24821;51.988;6.020;2022-07-01T08:25:47;21.60;91.00
39067;DHT22;24821;51.988;6.020;2022-07-01T08:28:13;21.60;90.30
39067;DHT22;24821;51.988;6.020;2022-07-01T08:30:38;21.70;91.00
39067;DHT22;24821;51.988;6.020;2022-07-01T08:33:04;21.60;90.60
39067;DHT22;24821;51.988;6.020;2022-07-01T08:35:30;21.60;90.90
39067;DHT22;24821;51.988;6.020;2022-07-01T08:37:56;22.00;90.70
39067;DHT22;24821;51.988;6.020;2022-07-01T08:40:25;22.20;90.30
39067;DHT22;24821;51.988;6.020;2022-07-01T08:42:50;22.20;88.90
39067;DHT22;24821;51.988;6.020;2022-07-01T08:45:16;22.10;88.00
39067;DHT22;24821;51.988;6.020;2022-07-01T08:47:53;22.00;89.10
39067;DHT22;24821;51.988;6.020;2022-07-01T08:50:21;22.10;87.70
39067;DHT22;24821;51.988;6.020;2022-07-01T08:52:46;22.30;87.40
39067;DHT22;24821;51.988;6.020;2022-07-01T08:55:12;22.80;88.90
39067;DHT22;24821;51.988;6.020;2022-07-01T08:57:37;23.10;86.20
39067;DHT22;24821;51.988;6.020;2022-07-01T09:00:08;23.20;86.10
39067;DHT22;24821;51.988;6.020;2022-07-01T09:03:01;23.10;85.10
39067;DHT22;24821;51.988;6.020;2022-07-01T09:05:36;23.30;85.30
39067;DHT22;24821;51.988;6.020;2022-07-01T09:08:04;23.30;83.60
39067;DHT22;24821;51.988;6.020;2022-07-01T09:10:32;23.70;82.80
39067;DHT22;24821;51.988;6.020;2022-07-01T09:13:08;23.40;81.00
39067;DHT22;24821;51.988;6.020;2022-07-01T09:15:34;23.40;82.30
39067;DHT22;24821;51.988;6.020;2022-07-01T09:18:16;23.20;81.70
39067;DHT22;24821;51.988;6.020;2022-07-01T09:20:43;22.80;82.80
39067;DHT22;24821;51.988;6.020;2022-07-01T09:23:11;22.50;83.00
39067;DHT22;24821;51.988;6.020;2022-07-01T09:25:43;22.20;83.50
39067;DHT22;24821;51.988;6.020;2022-07-01T09:28:20;22.30;84.10
39067;DHT22;24821;51.988;6.020;2022-07-01T09:30:48;22.60;83.90
39067;DHT22;24821;51.988;6.020;2022-07-01T09:33:18;22.70;80.90
39067;DHT22;24821;51.988;6.020;2022-07-01T09:35:45;23.00;82.60
39067;DHT22;24821;51.988;6.020;2022-07-01T09:38:15;23.40;81.40
39067;DHT22;24821;51.988;6.020;2022-07-01T09:40:52;23.60;79.10
39067;DHT22;24821;51.988;6.020;2022-07-01T09:43:25;23.30;79.80
39067;DHT22;24821;51.988;6.020;2022-07-01T09:46:03;23.20;79.30
39067;DHT22;24821;51.988;6.020;2022-07-01T09:50:57;22.80;80.50
39067;DHT22;24821;51.988;6.020;2022-07-01T09:53:23;22.70;79.10
39067;DHT22;24821;51.988;6.020;2022-07-01T09:55:48;22.60;79.60
39067;DHT22;24821;51.988;6.020;2022-07-01T09:58:14;22.80;79.20
39067;DHT22;24821;51.988;6.020;2022-07-01T10:00:40;22.90;78.60
39067;DHT22;24821;51.988;6.020;2022-07-01T10:03:06;23.30;81.30
39067;DHT22;24821;51.988;6.020;2022-07-01T10:05:38;23.80;79.60
39067;DHT22;24821;51.988;6.020;2022-07-01T10:13:33;23.20;75.50
39067;DHT22;24821;51.988;6.020;2022-07-01T10:16:02;22.80;77.20
39067;DHT22;24821;51.988;6.020;2022-07-01T10:18:28;22.60;78.20
39067;DHT22;24821;51.988;6.020;2022-07-01T10:20:55;22.50;79.30
39067;DHT22;24821;51.988;6.020;2022-07-01T10:23:23;22.50;78.40
39067;DHT22;24821;51.988;6.020;2022-07-01T10:25:53;22.30;78.40
39067;DHT22;24821;51.988;6.020;2022-07-01T10:31:06;22.00;79.70
39067;DHT22;24821;51.988;6.020;2022-07-01T10:33:58;21.90;80.10
39067;DHT22;24821;51.988;6.020;2022-07-01T10:36:35;21.90;78.70
39067;DHT22;24821;51.988;6.020;2022-07-01T10:44:13;22.10;79.70
39067;DHT22;24821;51.988;6.020;2022-07-01T10:46:39;22.20;80.50
39067;DHT22;24821;51.988;6.020;2022-07-01T10:49:07;22.50;79.30
39067;DHT22;24821;51.988;6.020;2022-07-01T10:54:11;22.60;78.70
39067;DHT22;24821;51.988;6.020;2022-07-01T10:56:40;22.70;78.80
39067;DHT22;24821;51.988;6.020;2022-07-01T10:59:07;23.00;78.80
39067;DHT22;24821;51.988;6.020;2022-07-01T11:01:33;23.20;76.40
39067;DHT22;24821;51.988;6.020;2022-07-01T11:03:59;23.20;78.10
39067;DHT22;24821;51.988;6.020;2022-07-01T11:06:25;23.10;75.60
39067;DHT22;24821;51.988;6.020;2022-07-01T11:08:51;23.10;75.70
39067;DHT22;24821;51.988;6.020;2022-07-01T11:11:16;23.20;77.10
39067;DHT22;24821;51.988;6.020;2022-07-01T11:13:45;23.40;75.20
39067;DHT22;24821;51.988;6.020;2022-07-01T11:16:10;23.20;76.40
39067;DHT22;24821;51.988;6.020;2022-07-01T11:18:36;23.00;75.90
39067;DHT22;24821;51.988;6.020;2022-07-01T11:21:03;23.10;74.70
39067;DHT22;24821;51.988;6.020;2022-07-01T11:23:29;23.00;76.60
39067;DHT22;24821;51.988;6.020;2022-07-01T11:25:54;23.10;74.80
39067;DHT22;24821;51.988;6.020;2022-07-01T11:28:20;23.40;76.60
39067;DHT22;24821;51.988;6.020;2022-07-01T11:30:45;23.70;76.30
39067;DHT22;24821;51.988;6.020;2022-07-01T11:33:11;23.80;72.90
39067;DHT22;24821;51.988;6.020;2022-07-01T11:35:37;23.70;72.40
39067;DHT22;24821;51.988;6.020;2022-07-01T11:38:23;23.50;73.70
39067;DHT22;24821;51.988;6.020;2022-07-01T11:41:17;23.10;73.00
39067;DHT22;24821;51.988;6.020;2022-07-01T11:43:42;22.80;75.20
39067;DHT22;24821;51.988;6.020;2022-07-01T11:46:08;22.90;76.90
39067;DHT22;24821;51.988;6.020;2022-07-01T11:48:40;23.20;73.00
39067;DHT22;24821;51.988;6.020;2022-07-01T11:51:09;23.30;73.00
39067;DHT22;24821;51.988;6.020;2022-07-01T11:53:36;23.40;74.30
39067;DHT22;24821;51.988;6.020;2022-07-01T11:56:02;23.50;69.80
39067;DHT22;24821;51.988;6.020;2022-07-01T11:58:50;23.50;72.20
39067;DHT22;24821;51.988;6.020;2022-07-01T12:01:24;23.70;72.50
39067;DHT22;24821;51.988;6.020;2022-07-01T12:03:50;23.40;73.20
39067;DHT22;24821;51.988;6.020;2022-07-01T12:06:17;23.20;74.00
39067;DHT22;24821;51.988;6.020;2022-07-01T12:08:45;23.20;74.00
39067;DHT22;24821;51.988;6.020;2022-07-01T12:11:11;23.20;73.70
39067;DHT22;24821;51.988;6.020;2022-07-01T12:13:36;23.30;73.00
39067;DHT22;24821;51.988;6.020;2022-07-01T12:16:07;23.50;71.60
39067;DHT22;24821;51.988;6.020;2022-07-01T12:18:33;23.50;73.90
39067;DHT22;24821;51.988;6.020;2022-07-01T12:21:01;23.20;72.30
39067;DHT22;24821;51.988;6.020;2022-07-01T12:23:26;22.90;73.70
39067;DHT22;24821;51.988;6.020;2022-07-01T12:25:52;23.00;73.10
39067;DHT22;24821;51.988;6.020;2022-07-01T12:28:37;22.80;72.30
39067;DHT22;24821;51.988;6.020;2022-07-01T12:31:05;22.60;74.10
39067;DHT22;24821;51.988;6.020;2022-07-01T12:33:35;22.70;74.00
39067;DHT22;24821;51.988;6.020;2022-07-01T12:36:03;23.00;74.30
39067;DHT22;24821;51.988;6.020;2022-07-01T12:38:29;23.20;74.40
39067;DHT22;24821;51.988;6.020;2022-07-01T12:40:55;23.50;73.10
39067;DHT22;24821;51.988;6.020;2022-07-01T12:43:25;23.70;72.20
39067;DHT22;24821;51.988;6.020;2022-07-01T12:45:54;23.70;69.80
39067;DHT22;24821;51.988;6.020;2022-07-01T12:48:19;23.70;71.50
39067;DHT22;24821;51.988;6.020;2022-07-01T12:50:45;23.70;70.80
39067;DHT22;24821;51.988;6.020;2022-07-01T12:53:17;23.70;71.50
39067;DHT22;24821;51.988;6.020;2022-07-01T12:55:48;23.90;70.50
39067;DHT22;24821;51.988;6.020;2022-07-01T12:58:19;24.10;70.50
39067;DHT22;24821;51.988;6.020;2022-07-01T13:00:48;24.10;68.40
39067;DHT22;24821;51.988;6.020;2022-07-01T13:03:17;24.10;70.60
39067;DHT22;24821;51.988;6.020;2022-07-01T13:05:43;23.90;69.90
39067;DHT22;24821;51.988;6.020;2022-07-01T13:08:09;23.60;70.60
39067;DHT22;24821;51.988;6.020;2022-07-01T13:10:35;23.50;71.70
39067;DHT22;24821;51.988;6.020;2022-07-01T13:13:03;23.60;71.70
39067;DHT22;24821;51.988;6.020;2022-07-01T13:15:29;23.80;71.80
39067;DHT22;24821;51.988;6.020;2022-07-01T13:17:55;24.00;72.10
39067;DHT22;24821;51.988;6.020;2022-07-01T13:20:21;24.10;70.80
39067;DHT22;24821;51.988;6.020;2022-07-01T13:22:47;24.10;71.30
39067;DHT22;24821;51.988;6.020;2022-07-01T13:25:13;24.20;70.70
39067;DHT22;24821;51.988;6.020;2022-07-01T13:27:39;24.30;71.80
39067;DHT22;24821;51.988;6.020;2022-07-01T13:30:06;24.30;68.40
39067;DHT22;24821;51.988;6.020;2022-07-01T13:32:33;24.30;69.00
39067;DHT22;24821;51.988;6.020;2022-07-01T13:34:59;24.10;69.50
39067;DHT22;24821;51.988;6.020;2022-07-01T13:37:25;24.10;71.50
39067;DHT22;24821;51.988;6.020;2022-07-01T13:39:51;24.10;69.30
39067;DHT22;24821;51.988;6.020;2022-07-01T13:42:16;23.90;70.00
39067;DHT22;24821;51.988;6.020;2022-07-01T13:44:42;23.60;71.30
39067;DHT22;24821;51.988;6.020;2022-07-01T13:47:08;23.60;72.50
39067;DHT22;24821;51.988;6.020;2022-07-01T13:49:36;23.80;71.20
39067;DHT22;24821;51.988;6.020;2022-07-01T13:52:02;23.90;70.10
39067;DHT22;24821;51.988;6.020;2022-07-01T13:54:28;24.00;70.50
39067;DHT22;24821;51.988;6.020;2022-07-01T13:56:53;24.00;67.30
39067;DHT22;24821;51.988;6.020;2022-07-01T13:59:19;23.90;68.00
39067;DHT22;24821;51.988;6.020;2022-07-01T14:01:44;23.70;68.90
39067;DHT22;24821;51.988;6.020;2022-07-01T14:04:10;23.40;69.90
39067;DHT22;24821;51.988;6.020;2022-07-01T14:06:36;23.40;72.40
39067;DHT22;24821;51.988;6.020;2022-07-01T14:09:02;23.60;72.00
39067;DHT22;24821;51.988;6.020;2022-07-01T14:11:28;23.90;71.10
39067;DHT22;24821;51.988;6.020;2022-07-01T14:13:53;24.20;69.60
39067;DHT22;24821;51.988;6.020;2022-07-01T14:16:19;24.30;67.20
39067;DHT22;24821;51.988;6.020;2022-07-01T14:18:44;24.30;67.80
39067;DHT22;24821;51.988;6.020;2022-07-01T14:21:10;24.40;69.10
39067;DHT22;24821;51.988;6.020;2022-07-01T14:23:36;24.50;67.20
39067;DHT22;24821;51.988;6.020;2022-07-01T14:26:02;24.50;66.10
39067;DHT22;24821;51.988;6.020;2022-07-01T14:28:28;24.50;68.60
39067;DHT22;24821;51.988;6.020;2022-07-01T14:30:54;24.40;67.10
39067;DHT22;24821;51.988;6.020;2022-07-01T14:33:21;24.30;66.90
39067;DHT22;24821;51.988;6.020;2022-07-01T14:35:46;24.20;66.70
39067;DHT22;24821;51.988;6.020;2022-07-01T14:38:12;24.20;68.60
39067;DHT22;24821;51.988;6.020;2022-07-01T14:40:40;24.20;66.80
39067;DHT22;24821;51.988;6.020;2022-07-01T14:43:05;24.10;66.40
39067;DHT22;24821;51.988;6.020;2022-07-01T14:45:31;24.10;69.00
39067;DHT22;24821;51.988;6.020;2022-07-01T14:47:56;24.20;68.80
39067;DHT22;24821;51.988;6.020;2022-07-01T14:50:22;24.10;67.30
39067;DHT22;24821;51.988;6.020;2022-07-01T14:52:48;23.90;68.50
39067;DHT22;24821;51.988;6.020;2022-07-01T14:55:14;24.00;70.10
39067;DHT22;24821;51.988;6.020;2022-07-01T14:57:41;24.10;67.20
39067;DHT22;24821;51.988;6.020;2022-07-01T15:00:07;24.30;66.70
39067;DHT22;24821;51.988;6.020;2022-07-01T15:02:33;24.40;65.00
39067;DHT22;24821;51.988;6.020;2022-07-01T15:04:59;24.50;63.60
39067;DHT22;24821;51.988;6.020;2022-07-01T15:07:24;24.40;66.00
39067;DHT22;24821;51.988;6.020;2022-07-01T15:09:51;24.30;65.60
39067;DHT22;24821;51.988;6.020;2022-07-01T15:12:17;24.30;64.40
39067;DHT22;24821;51.988;6.020;2022-07-01T15:14:44;24.10;64.70
39067;DHT22;24821;51.988;6.020;2022-07-01T15:17:10;24.00;64.90
39067;DHT22;24821;51.988;6.020;2022-07-01T15:19:36;23.80;65.60
39067;DHT22;24821;51.988;6.020;2022-07-01T15:22:04;23.60;67.20
39067;DHT22;24821;51.988;6.020;2022-07-01T15:24:29;23.40;68.60
39067;DHT22;24821;51.988;6.020;2022-07-01T15:26:55;23.20;68.70
39067;DHT22;24821;51.988;6.020;2022-07-01T15:29:21;23.00;69.20
39067;DHT22;24821;51.988;6.020;2022-07-01T15:31:47;22.80;70.30
39067;DHT22;24821;51.988;6.020;2022-07-01T15:34:13;22.70;70.80
39067;DHT22;24821;51.988;6.020;2022-07-01T15:36:41;22.60;71.20
39067;DHT22;24821;51.988;6.020;2022-07-01T15:39:07;22.40;72.10
39067;DHT22;24821;51.988;6.020;2022-07-01T15:41:32;22.20;72.60
39067;DHT22;24821;51.988;6.020;2022-07-01T15:43:59;22.10;74.10
39067;DHT22;24821;51.988;6.020;2022-07-01T15:46:25;22.10;74.70